createdAt,value
2023-05-07T00:00:53.264Z,79.86
2023-05-07T00:03:22.335Z,79.70
2023-05-07T00:05:51.728Z,78.35
2023-05-07T00:08:20.869Z,78.68
2023-05-07T00:10:50.018Z,77.89
2023-05-07T00:13:19.026Z,78.39
2023-05-07T00:15:48.234Z,76.63
2023-05-07T00:18:17.140Z,75.46
2023-05-07T00:20:46.388Z,75.74
2023-05-07T00:23:15.225Z,74.05
2023-05-07T00:25:44.343Z,73.49
2023-05-07T00:28:13.217Z,73.30
2023-05-07T00:30:42.466Z,72.44
2023-05-07T00:33:11.399Z,71.11
2023-05-07T00:35:40.652Z,71.55
2023-05-07T00:38:10.107Z,69.44
2023-05-07T00:40:39.186Z,68.58
2023-05-07T00:43:08.724Z,68.82
2023-05-07T00:45:38.068Z,68.84
2023-05-07T00:48:07.390Z,68.88
2023-05-07T00:50:36.660Z,67.89
2023-05-07T00:53:06.570Z,67.53
2023-05-07T00:55:36.136Z,66.95
2023-05-07T00:58:05.509Z,65.19
2023-05-07T01:00:35.133Z,64.99
2023-05-07T01:03:04.287Z,63.80
2023-05-07T01:05:34.706Z,63.59
2023-05-07T01:08:07.049Z,63.18
2023-05-07T01:10:36.621Z,62.08
2023-05-07T01:13:06.414Z,61.81
2023-05-07T01:15:35.602Z,61.61
2023-05-07T01:18:05.212Z,61.51
2023-05-07T01:20:37.117Z,61.33
2023-05-07T01:23:08.703Z,61.23
2023-05-07T01:25:38.269Z,61.03
2023-05-07T01:28:07.836Z,60.72
2023-05-07T01:30:43.397Z,60.33
2023-05-07T01:33:16.074Z,60.69
2023-05-07T01:35:49.855Z,60.13
2023-05-07T01:38:20.404Z,59.85
2023-05-07T01:40:50.115Z,60.21
2023-05-07T01:43:20.101Z,59.86
2023-05-07T01:45:51.171Z,60.05
2023-05-07T01:48:20.786Z,59.10
2023-05-07T01:50:50.540Z,59.24
2023-05-07T01:53:19.668Z,60.38
2023-05-07T01:55:48.466Z,59.79
2023-05-07T01:58:18.798Z,59.09
2023-05-07T02:00:48.192Z,59.74
2023-05-07T02:03:17.239Z,58.97
2023-05-07T02:05:54.899Z,59.90
2023-05-07T02:08:39.343Z,59.40
2023-05-07T02:11:15.034Z,59.31
2023-05-07T02:13:44.351Z,59.24
2023-05-07T02:16:13.439Z,60.13
2023-05-07T02:18:42.795Z,60.18
2023-05-07T02:21:11.746Z,60.55
2023-05-07T02:23:40.806Z,61.79
2023-05-07T02:26:10.163Z,61.18
2023-05-07T02:28:40.722Z,60.83
2023-05-07T02:31:09.884Z,61.36
2023-05-07T02:33:38.763Z,62.12
2023-05-07T02:36:13.904Z,61.63
2023-05-07T02:38:53.041Z,62.86
2023-05-07T02:41:22.569Z,62.42
2023-05-07T02:43:51.686Z,63.03
2023-05-07T02:46:21.976Z,63.53
2023-05-07T02:48:59.144Z,63.75
2023-05-07T02:51:28.950Z,64.28
2023-05-07T02:54:00.856Z,63.57
2023-05-07T02:56:30.977Z,63.96
2023-05-07T02:59:00.505Z,64.61
2023-05-07T03:01:33.944Z,63.88
2023-05-07T03:04:08.641Z,63.38
2023-05-07T03:06:37.804Z,63.25
2023-05-07T03:09:06.850Z,63.46
2023-05-07T03:11:36.199Z,62.98
2023-05-07T03:14:05.250Z,63.14
2023-05-07T03:16:34.854Z,62.53
2023-05-07T03:19:04.035Z,61.91
2023-05-07T03:21:35.681Z,61.98
2023-05-07T03:24:04.927Z,62.15
2023-05-07T03:26:33.942Z,62.64
2023-05-07T03:29:03.766Z,61.84
2023-05-07T03:31:32.977Z,61.91
2023-05-07T03:34:03.612Z,61.61
2023-05-07T03:36:33.062Z,61.40
2023-05-07T03:39:02.258Z,61.36
2023-05-07T03:41:38.670Z,61.37
2023-05-07T03:44:07.933Z,61.60
2023-05-07T03:46:37.192Z,60.94
2023-05-07T03:49:06.420Z,60.82
2023-05-07T03:51:35.669Z,61.25
2023-05-07T03:54:06.908Z,60.59
2023-05-07T03:56:36.617Z,59.87
2023-05-07T03:59:05.561Z,58.07
2023-05-07T04:01:34.868Z,57.98
2023-05-07T04:04:05.188Z,57.89
2023-05-07T04:06:35.559Z,58.35
2023-05-07T04:09:05.276Z,57.25
2023-05-07T04:11:34.320Z,56.82
2023-05-07T04:14:03.517Z,56.82
2023-05-07T04:16:32.401Z,57.79
2023-05-07T04:19:01.729Z,57.12
2023-05-07T04:21:32.057Z,55.98
2023-05-07T04:24:01.670Z,55.90
2023-05-07T04:26:31.334Z,56.67
2023-05-07T04:29:01.815Z,55.56
2023-05-07T04:31:35.393Z,53.81
2023-05-07T04:34:04.654Z,54.15
2023-05-07T04:36:35.154Z,53.68
2023-05-07T04:39:09.891Z,54.04
2023-05-07T04:41:40.546Z,54.53
2023-05-07T04:44:11.369Z,54.27
2023-05-07T04:46:40.629Z,52.77
2023-05-07T04:49:09.391Z,54.86
2023-05-07T04:51:38.627Z,53.75
2023-05-07T04:54:07.916Z,52.78
2023-05-07T04:56:36.964Z,50.55
2023-05-07T04:59:06.139Z,51.03
2023-05-07T05:01:35.426Z,52.02
2023-05-07T05:04:04.510Z,51.66
2023-05-07T05:06:34.226Z,51.77
2023-05-07T05:09:06.881Z,51.92
2023-05-07T05:11:37.088Z,51.37
2023-05-07T05:14:06.816Z,50.05
2023-05-07T05:16:35.763Z,50.93
2023-05-07T05:19:05.190Z,49.46
2023-05-07T05:21:37.114Z,50.23
2023-05-07T05:24:10.432Z,50.09
2023-05-07T05:26:40.857Z,47.28
2023-05-07T05:29:10.187Z,48.82
2023-05-07T05:31:43.612Z,47.87
2023-05-07T05:34:13.215Z,49.01
2023-05-07T05:36:43.259Z,49.57
2023-05-07T05:39:12.604Z,48.92
2023-05-07T05:41:41.545Z,46.33
2023-05-07T05:44:10.695Z,45.08
2023-05-07T05:46:40.280Z,44.27
2023-05-07T05:49:09.521Z,44.29
2023-05-07T05:51:39.395Z,45.09
2023-05-07T05:54:08.627Z,45.22
2023-05-07T05:56:39.895Z,46.30
2023-05-07T05:59:09.967Z,44.77
2023-05-07T06:01:39.786Z,44.43
2023-05-07T06:04:09.213Z,42.86
2023-05-07T06:06:38.414Z,44.13
2023-05-07T06:09:07.395Z,42.63
2023-05-07T06:11:43.716Z,43.33
2023-05-07T06:14:14.353Z,43.34
2023-05-07T06:16:44.063Z,42.03
2023-05-07T06:19:13.426Z,44.07
2023-05-07T06:21:43.920Z,43.12
2023-05-07T06:24:13.237Z,42.45
2023-05-07T06:26:42.180Z,40.59
2023-05-07T06:29:11.481Z,40.76
2023-05-07T06:31:42.975Z,39.93
2023-05-07T06:34:18.340Z,43.04
2023-05-07T06:36:48.214Z,42.45
2023-05-07T06:39:26.828Z,40.29
2023-05-07T06:41:56.254Z,40.82
2023-05-07T06:44:34.050Z,39.87
2023-05-07T06:47:09.867Z,39.77
2023-05-07T06:49:41.484Z,39.01
2023-05-07T06:52:10.508Z,41.72
2023-05-07T06:54:39.786Z,40.88
2023-05-07T06:57:10.286Z,41.15
2023-05-07T06:59:39.536Z,40.46
2023-05-07T07:02:08.841Z,39.42
2023-05-07T07:04:39.703Z,38.25
2023-05-07T07:07:12.397Z,39.25
2023-05-07T07:09:43.223Z,39.55
2023-05-07T07:12:13.192Z,39.02
2023-05-07T07:14:43.261Z,39.39
2023-05-07T07:17:12.584Z,39.58
2023-05-07T07:19:41.616Z,40.18
2023-05-07T07:22:12.211Z,39.39
2023-05-07T07:24:41.255Z,37.86
2023-05-07T07:27:12.554Z,38.75
2023-05-07T07:29:42.009Z,37.70
2023-05-07T07:32:10.884Z,37.00
2023-05-07T07:34:40.319Z,37.77
2023-05-07T07:37:09.970Z,36.58
2023-05-07T07:39:39.972Z,36.92
2023-05-07T07:42:10.699Z,36.57
2023-05-07T07:44:41.777Z,35.89
2023-05-07T07:47:12.900Z,34.06
2023-05-07T07:49:43.043Z,35.18
2023-05-07T07:52:12.529Z,34.95
2023-05-07T07:54:42.808Z,34.73
2023-05-07T07:57:11.793Z,33.97
2023-05-07T07:59:41.505Z,33.42
2023-05-07T08:02:11.722Z,34.57
2023-05-07T08:04:41.305Z,35.04
2023-05-07T08:07:12.652Z,33.10
2023-05-07T08:09:44.761Z,33.65
2023-05-07T08:12:14.596Z,33.47
2023-05-07T08:14:44.147Z,32.52
2023-05-07T08:17:13.657Z,31.96
2023-05-07T08:19:42.922Z,32.29
2023-05-07T08:22:14.699Z,31.71
2023-05-07T08:24:44.150Z,32.11
2023-05-07T08:27:13.845Z,32.67
2023-05-07T08:29:44.693Z,32.53
2023-05-07T08:32:13.815Z,30.23
2023-05-07T08:34:42.707Z,29.69
2023-05-07T08:37:12.106Z,30.26
2023-05-07T08:39:41.557Z,28.41
2023-05-07T08:42:20.081Z,28.69
2023-05-07T08:44:50.256Z,31.24
2023-05-07T08:47:22.328Z,30.88
2023-05-07T08:49:54.265Z,29.62
2023-05-07T08:52:24.103Z,30.55
2023-05-07T08:54:53.462Z,30.29
2023-05-07T08:57:23.653Z,32.63
2023-05-07T08:59:53.224Z,31.38
2023-05-07T09:02:22.904Z,31.09
2023-05-07T09:04:53.129Z,31.63
2023-05-07T09:07:22.662Z,29.70
2023-05-07T09:09:51.602Z,31.68
2023-05-07T09:12:22.968Z,30.04
2023-05-07T09:14:52.324Z,29.58
2023-05-07T09:17:21.237Z,32.39
2023-05-07T09:19:50.569Z,30.83
2023-05-07T09:22:19.639Z,30.56
2023-05-07T09:25:09.987Z,29.60
2023-05-07T09:27:40.678Z,30.82
2023-05-07T09:30:11.467Z,30.48
2023-05-07T09:32:40.954Z,30.11
2023-05-07T09:35:20.050Z,29.80
2023-05-07T09:37:55.146Z,31.59
2023-05-07T09:40:25.814Z,30.24
2023-05-07T09:42:56.733Z,31.05
2023-05-07T09:45:30.210Z,29.99
2023-05-07T09:48:01.244Z,31.30
2023-05-07T09:50:34.821Z,30.92
2023-05-07T09:53:05.541Z,32.61
2023-05-07T09:55:35.408Z,32.57
2023-05-07T09:58:07.419Z,31.21
2023-05-07T10:00:37.584Z,31.45
2023-05-07T10:03:13.591Z,31.62
2023-05-07T10:05:55.493Z,33.53
2023-05-07T10:08:25.376Z,31.69
2023-05-07T10:10:58.818Z,32.42
2023-05-07T10:13:30.279Z,31.83
2023-05-07T10:16:02.862Z,31.99
2023-05-07T10:18:37.449Z,31.77
2023-05-07T10:21:25.363Z,32.15
2023-05-07T10:24:19.260Z,32.28
2023-05-07T10:26:53.635Z,32.17
2023-05-07T10:29:29.792Z,31.49
2023-05-07T10:32:22.430Z,31.91
2023-05-07T10:34:55.906Z,31.90
2023-05-07T10:37:26.393Z,32.20
2023-05-07T10:39:57.475Z,33.00
2023-05-07T10:42:28.706Z,32.25
2023-05-07T10:44:59.387Z,31.95
2023-05-07T10:47:32.346Z,32.01
2023-05-07T10:50:07.055Z,31.14
2023-05-07T10:52:41.010Z,31.43
2023-05-07T10:55:23.458Z,32.82
2023-05-07T11:01:06.573Z,33.37
2023-05-07T11:04:29.669Z,32.67
2023-05-07T11:07:11.140Z,32.95
2023-05-07T11:09:55.229Z,32.82
2023-05-07T11:12:40.413Z,32.68
2023-05-07T11:15:37.077Z,32.54
2023-05-07T11:18:11.942Z,33.27
2023-05-07T11:20:52.627Z,30.95
2023-05-07T11:23:44.674Z,33.87
2023-05-07T11:26:21.114Z,33.22
2023-05-07T11:28:51.250Z,33.69
2023-05-07T11:31:27.816Z,31.36
2023-05-07T11:34:00.107Z,32.30
2023-05-07T11:36:34.768Z,32.06
2023-05-07T11:39:06.184Z,32.58
2023-05-07T11:41:39.393Z,31.40
2023-05-07T11:44:08.511Z,32.91
2023-05-07T11:46:37.427Z,32.72
2023-05-07T11:49:06.654Z,32.16
2023-05-07T11:51:35.579Z,32.11
2023-05-07T11:54:10.647Z,31.82
2023-05-07T11:56:40.906Z,31.30
2023-05-07T11:59:09.972Z,31.75
2023-05-07T12:01:39.107Z,32.47
2023-05-07T12:04:08.402Z,32.95
2023-05-07T12:06:39.930Z,31.85
2023-05-07T12:09:13.368Z,32.03
2023-05-07T12:11:42.470Z,32.41
2023-05-07T12:14:12.377Z,32.57
2023-05-07T12:16:43.206Z,32.53
2023-05-07T12:19:15.837Z,33.52
2023-05-07T12:21:45.791Z,32.81
2023-05-07T12:24:16.533Z,33.73
2023-05-07T12:26:46.623Z,34.88
2023-05-07T12:29:15.838Z,34.00
2023-05-07T12:31:45.943Z,33.99
2023-05-07T12:34:15.128Z,34.32
2023-05-07T12:36:44.266Z,34.00
2023-05-07T12:39:13.715Z,34.68
2023-05-07T12:42:02.897Z,35.20
2023-05-07T12:44:36.362Z,35.09
2023-05-07T12:47:05.617Z,34.76
2023-05-07T12:49:39.833Z,34.96
2023-05-07T12:52:09.228Z,34.79
2023-05-07T12:54:41.075Z,35.06
2023-05-07T12:57:11.922Z,35.17
2023-05-07T12:59:42.866Z,35.39
2023-05-07T13:02:12.273Z,36.50
2023-05-07T13:04:42.940Z,35.72
2023-05-07T13:07:12.190Z,36.26
2023-05-07T13:09:41.233Z,36.82
2023-05-07T13:12:10.352Z,36.22
2023-05-07T13:14:39.310Z,36.56
2023-05-07T13:17:08.515Z,37.38
2023-05-07T13:19:39.435Z,37.52
2023-05-07T13:22:08.580Z,37.97
2023-05-07T13:24:37.618Z,38.13
2023-05-07T13:27:06.765Z,37.58
2023-05-07T13:29:35.785Z,38.26
2023-05-07T13:32:05.042Z,38.46
2023-05-07T13:34:34.206Z,37.33
2023-05-07T13:37:03.558Z,37.67
2023-05-07T13:39:32.822Z,37.44
2023-05-07T13:42:02.027Z,38.07
2023-05-07T13:44:31.319Z,38.54
2023-05-07T13:47:00.240Z,37.91
2023-05-07T13:49:29.592Z,37.63
2023-05-07T13:51:58.720Z,38.15
2023-05-07T13:54:27.761Z,38.26
2023-05-07T13:56:57.006Z,39.18
2023-05-07T13:59:26.103Z,39.11
2023-05-07T14:01:54.790Z,39.94
2023-05-07T14:04:24.007Z,39.79
2023-05-07T14:06:52.892Z,39.82
2023-05-07T14:09:21.907Z,40.56
2023-05-07T14:11:53.267Z,40.14
2023-05-07T14:14:22.484Z,40.65
2023-05-07T14:16:51.558Z,41.19
2023-05-07T14:19:50.880Z,41.35
2023-05-07T14:22:20.126Z,41.89
2023-05-07T14:24:59.442Z,41.97
2023-05-07T14:27:35.425Z,42.45
2023-05-07T14:30:04.368Z,42.91
2023-05-07T14:32:34.340Z,42.94
2023-05-07T14:35:03.325Z,43.49
2023-05-07T14:37:32.442Z,43.19
2023-05-07T14:40:01.279Z,43.92
2023-05-07T14:42:30.427Z,43.96
2023-05-07T14:44:59.175Z,43.79
2023-05-07T14:47:28.143Z,43.79
2023-05-07T14:49:57.149Z,43.41
2023-05-07T14:52:26.248Z,43.25
2023-05-07T14:54:55.003Z,44.01
2023-05-07T14:57:24.388Z,44.04
2023-05-07T14:59:53.362Z,43.98
2023-05-07T15:02:22.751Z,44.42
2023-05-07T15:04:51.978Z,44.58
2023-05-07T15:07:20.949Z,44.86
2023-05-07T15:09:49.781Z,45.33
2023-05-07T15:12:18.830Z,45.87
2023-05-07T15:14:47.743Z,45.86
2023-05-07T15:17:17.031Z,46.11
2023-05-07T15:19:45.871Z,46.36
2023-05-07T15:22:14.840Z,46.99
2023-05-07T15:24:43.672Z,46.47
2023-05-07T15:27:12.948Z,46.46
2023-05-07T15:29:42.036Z,46.08
2023-05-07T15:32:11.058Z,46.43
2023-05-07T15:34:40.093Z,46.45
2023-05-07T15:37:09.147Z,46.30
2023-05-07T15:39:37.833Z,47.06
2023-05-07T15:42:07.062Z,46.31
2023-05-07T15:44:36.391Z,46.56
2023-05-07T15:47:05.451Z,46.44
2023-05-07T15:49:34.891Z,46.33
2023-05-07T15:52:03.882Z,46.94
2023-05-07T15:54:32.837Z,46.38
2023-05-07T15:57:03.281Z,47.14
2023-05-07T15:59:32.180Z,46.73
2023-05-07T16:02:02.173Z,47.16
2023-05-07T16:04:31.233Z,47.04
2023-05-07T16:07:00.035Z,47.29
2023-05-07T16:09:30.233Z,47.75
2023-05-07T16:11:59.329Z,47.75
2023-05-07T16:14:28.396Z,46.72
2023-05-07T16:16:57.601Z,47.53
2023-05-07T16:19:26.644Z,47.27
2023-05-07T16:21:55.800Z,47.27
2023-05-07T16:24:24.587Z,47.44
2023-05-07T16:26:53.585Z,48.31
2023-05-07T16:29:24.001Z,49.25
2023-05-07T16:31:54.242Z,49.81
2023-05-07T16:34:24.278Z,49.97
2023-05-07T16:36:53.496Z,51.03
2023-05-07T16:39:22.361Z,50.75
2023-05-07T16:41:51.705Z,49.86
2023-05-07T16:44:20.532Z,49.50
2023-05-07T16:46:49.669Z,49.15
2023-05-07T16:49:18.452Z,48.99
2023-05-07T16:51:48.015Z,47.88
2023-05-07T16:54:16.962Z,46.90
2023-05-07T16:56:45.959Z,47.42
2023-05-07T16:59:14.848Z,47.56
2023-05-07T17:01:43.850Z,47.61
2023-05-07T17:04:12.875Z,48.67
2023-05-07T17:06:41.833Z,48.29
2023-05-07T17:09:10.830Z,48.92
2023-05-07T17:11:39.884Z,49.32
2023-05-07T17:14:08.755Z,48.91
2023-05-07T17:16:38.270Z,49.31
2023-05-07T17:19:07.737Z,49.76
2023-05-07T17:21:36.773Z,50.12
2023-05-07T17:24:05.995Z,50.75
2023-05-07T17:26:37.264Z,50.42
2023-05-07T17:29:06.419Z,50.06
2023-05-07T17:31:35.285Z,50.55
2023-05-07T17:34:04.407Z,51.33
2023-05-07T17:36:33.962Z,51.10
2023-05-07T17:39:03.452Z,51.31
2023-05-07T17:41:32.299Z,51.55
2023-05-07T17:44:01.362Z,51.86
2023-05-07T17:46:30.432Z,51.27
2023-05-07T17:48:59.566Z,51.99
2023-05-07T17:51:36.060Z,52.26
2023-05-07T17:54:11.840Z,51.18
2023-05-07T17:56:41.751Z,51.13
2023-05-07T17:59:10.929Z,51.28
2023-05-07T18:01:40.168Z,51.81
2023-05-07T18:04:10.370Z,51.73
2023-05-07T18:06:39.758Z,52.02
2023-05-07T18:09:08.649Z,52.63
2023-05-07T18:11:38.741Z,52.47
2023-05-07T18:14:07.971Z,53.14
2023-05-07T18:16:36.867Z,53.80
2023-05-07T18:19:06.028Z,53.20
2023-05-07T18:21:34.764Z,53.77
2023-05-07T18:24:03.959Z,53.63
2023-05-07T18:26:32.767Z,53.39
2023-05-07T18:29:02.072Z,54.04
2023-05-07T18:31:31.021Z,53.63
2023-05-07T18:34:00.182Z,54.91
2023-05-07T18:36:29.101Z,55.33
2023-05-07T18:38:58.083Z,55.36
2023-05-07T18:41:26.881Z,55.97
2023-05-07T18:43:56.031Z,56.72
2023-05-07T18:46:25.008Z,57.76
2023-05-07T18:48:55.874Z,56.89
2023-05-07T18:51:24.865Z,57.04
2023-05-07T18:53:53.698Z,56.96
2023-05-07T18:56:22.850Z,57.15
2023-05-07T18:58:51.648Z,57.26
2023-05-07T19:01:20.799Z,57.42
2023-05-07T19:03:49.726Z,57.44
2023-05-07T19:06:18.703Z,57.27
2023-05-07T19:08:47.469Z,57.88
2023-05-07T19:11:16.679Z,57.90
2023-05-07T19:13:46.304Z,58.19
2023-05-07T19:16:15.316Z,58.86
2023-05-07T19:18:44.532Z,58.82
2023-05-07T19:21:13.549Z,58.61
2023-05-07T19:23:47.125Z,59.17
2023-05-07T19:26:16.217Z,58.70
2023-05-07T19:28:45.458Z,58.89
2023-05-07T19:31:27.918Z,58.98
2023-05-07T19:33:56.872Z,59.04
2023-05-07T19:36:25.575Z,59.39
2023-05-07T19:38:55.599Z,60.33
2023-05-07T19:41:24.610Z,60.29
2023-05-07T19:43:53.646Z,60.36
2023-05-07T19:46:22.649Z,60.28
2023-05-07T19:48:52.000Z,60.36
2023-05-07T19:51:20.859Z,60.83
2023-05-07T19:53:50.022Z,60.71
2023-05-07T19:56:18.801Z,60.94
2023-05-07T19:58:47.772Z,61.28
2023-05-07T20:01:17.148Z,61.97
2023-05-07T20:03:47.706Z,61.15
2023-05-07T20:06:17.625Z,61.79
2023-05-07T20:08:47.420Z,61.64
2023-05-07T20:11:17.448Z,61.42
2023-05-07T20:13:47.078Z,62.76
2023-05-07T20:16:19.112Z,62.48
2023-05-07T20:18:50.196Z,61.90
2023-05-07T20:21:21.566Z,61.84
2023-05-07T20:23:53.623Z,62.55
2023-05-07T20:26:24.703Z,61.99
2023-05-07T20:28:55.475Z,61.64
2023-05-07T20:31:25.979Z,61.47
2023-05-07T20:33:57.146Z,61.28
2023-05-07T20:36:28.647Z,60.77
2023-05-07T20:38:59.605Z,61.18
2023-05-07T20:41:30.602Z,60.95
2023-05-07T20:44:02.580Z,61.46
2023-05-07T20:46:34.041Z,61.14
2023-05-07T20:49:05.240Z,61.67
2023-05-07T20:51:36.999Z,61.96
2023-05-07T20:54:10.229Z,61.38
2023-05-07T20:56:40.363Z,61.40
2023-05-07T20:59:11.283Z,61.69
2023-05-07T21:01:44.303Z,61.49
2023-05-07T21:04:15.198Z,61.64
2023-05-07T21:06:46.626Z,62.03
2023-05-07T21:09:18.578Z,61.85
2023-05-07T21:11:49.886Z,61.57
2023-05-07T21:14:21.963Z,61.55
2023-05-07T21:16:53.381Z,61.35
2023-05-07T21:19:24.798Z,61.35
2023-05-07T21:21:59.022Z,61.67
2023-05-07T21:24:29.968Z,61.62
2023-05-07T21:27:04.341Z,61.72
2023-05-07T21:29:36.590Z,62.15
2023-05-07T21:32:07.998Z,61.95
2023-05-07T21:34:38.988Z,61.72
2023-05-07T21:37:10.332Z,61.63
2023-05-07T21:39:41.728Z,61.63
2023-05-07T21:42:13.025Z,61.62
2023-05-07T21:44:44.614Z,61.69
2023-05-07T21:47:15.510Z,61.71
2023-05-07T21:49:46.763Z,61.94
2023-05-07T21:52:18.831Z,61.77
2023-05-07T21:54:53.805Z,61.85
2023-05-07T21:57:24.512Z,61.76
2023-05-07T21:59:55.764Z,61.90
2023-05-07T22:02:27.336Z,62.05
2023-05-07T22:04:58.475Z,62.05
2023-05-07T22:07:30.006Z,62.08
2023-05-07T22:10:01.438Z,61.84
2023-05-07T22:12:32.383Z,61.74
2023-05-07T22:15:03.268Z,61.58
2023-05-07T22:17:34.402Z,61.57
2023-05-07T22:20:05.334Z,61.65
2023-05-07T22:22:48.430Z,61.75
2023-05-07T22:25:21.758Z,61.98
2023-05-07T22:27:53.341Z,62.22
2023-05-07T22:30:25.352Z,62.06
2023-05-07T22:32:56.618Z,61.70
2023-05-07T22:35:28.175Z,61.66
2023-05-07T22:38:00.191Z,61.79
2023-05-07T22:40:31.523Z,61.84
2023-05-07T22:43:03.488Z,62.17
2023-05-07T22:45:34.311Z,62.40
2023-05-07T22:48:05.205Z,62.16
2023-05-07T22:50:40.309Z,61.48
2023-05-07T22:53:11.142Z,60.55
2023-05-07T22:55:42.314Z,59.99
2023-05-07T22:58:13.632Z,58.58
2023-05-07T23:01:25.963Z,57.87
2023-05-07T23:03:55.223Z,57.26
2023-05-07T23:07:38.271Z,56.29
2023-05-07T23:10:10.388Z,55.81
2023-05-07T23:12:42.086Z,55.08
2023-05-07T23:15:14.253Z,55.30
2023-05-07T23:17:46.735Z,55.00
2023-05-07T23:20:18.231Z,54.96
2023-05-07T23:22:50.329Z,54.09
2023-05-07T23:25:21.916Z,53.91
2023-05-07T23:27:54.145Z,53.58
2023-05-07T23:30:23.679Z,53.27
2023-05-07T23:32:52.782Z,53.22
2023-05-07T23:35:22.371Z,52.72
2023-05-07T23:37:51.382Z,52.99
2023-05-07T23:40:21.034Z,52.36
2023-05-07T23:42:49.835Z,51.63
2023-05-07T23:45:19.130Z,51.43
2023-05-07T23:47:48.169Z,51.06
2023-05-07T23:50:17.426Z,50.82
2023-05-07T23:52:46.368Z,51.13
2023-05-07T23:55:17.726Z,51.01
2023-05-07T23:57:47.019Z,51.96
